createdAt,value
2022-12-16T00:01:32.367Z,100525.91
2022-12-16T00:04:01.319Z,100529.13
2022-12-16T00:06:33.036Z,100522.38
2022-12-16T00:09:03.120Z,100520.94
2022-12-16T00:11:32.830Z,100523.63
2022-12-16T00:14:01.760Z,100524.41
2022-12-16T00:16:32.343Z,100522.25
2022-12-16T00:19:01.647Z,100517.47
2022-12-16T00:21:34.336Z,100517.00
2022-12-16T00:24:04.720Z,100530.22
2022-12-16T00:26:34.001Z,100518.81
2022-12-16T00:29:05.744Z,100528.25
2022-12-16T00:31:37.191Z,100524.69
2022-12-16T00:34:06.520Z,100521.31
2022-12-16T00:36:35.660Z,100523.41
2022-12-16T00:39:07.097Z,100525.09
2022-12-16T00:41:38.516Z,100529.44
2022-12-16T00:44:11.298Z,100529.25
2022-12-16T00:46:44.494Z,100538.59
2022-12-16T00:49:17.291Z,100538.31
2022-12-16T00:51:47.840Z,100537.13
2022-12-16T00:54:20.430Z,100538.22
2022-12-16T00:56:51.765Z,100543.13
2022-12-16T00:59:25.114Z,100542.25
2022-12-16T01:01:56.429Z,100539.09
2022-12-16T01:04:26.944Z,100545.94
2022-12-16T01:06:56.834Z,100550.88
2022-12-16T01:09:27.543Z,100550.06
2022-12-16T01:11:56.654Z,100561.53
2022-12-16T01:14:26.225Z,100556.78
2022-12-16T01:16:57.521Z,100558.66
2022-12-16T01:19:26.368Z,100551.59
2022-12-16T01:21:54.706Z,100549.16
2022-12-16T01:24:23.093Z,100561.03
2022-12-16T01:26:52.901Z,100568.91
2022-12-16T01:29:22.550Z,100569.56
2022-12-16T01:31:55.241Z,100576.09
2022-12-16T01:37:27.172Z,100581.78
2022-12-16T01:39:56.772Z,100581.13
2022-12-16T01:42:28.988Z,100584.09
2022-12-16T01:44:57.176Z,100580.94
2022-12-16T01:47:29.701Z,100568.25
2022-12-16T01:50:04.284Z,100580.38
2022-12-16T01:52:38.138Z,100573.75
2022-12-16T01:55:10.746Z,100579.97
2022-12-16T01:57:43.151Z,100584.50
2022-12-16T02:00:13.217Z,100586.59
2022-12-16T02:02:44.079Z,100583.38
2022-12-16T02:05:26.217Z,100587.66
2022-12-16T02:08:01.254Z,100578.63
2022-12-16T02:10:40.761Z,100579.84
2022-12-16T02:13:21.166Z,100582.25
2022-12-16T02:15:59.742Z,100575.13
2022-12-16T02:18:42.326Z,100577.81
2022-12-16T02:21:33.735Z,100576.53
2022-12-16T02:24:26.325Z,100575.41
2022-12-16T02:27:20.778Z,100578.09
2022-12-16T02:30:08.075Z,100576.84
2022-12-16T02:32:51.098Z,100578.72
2022-12-16T02:35:29.397Z,100580.38
2022-12-16T02:38:05.214Z,100582.25
2022-12-16T02:40:41.580Z,100580.31
2022-12-16T02:43:17.642Z,100576.97
2022-12-16T02:45:46.487Z,100575.91
2022-12-16T02:48:18.058Z,100576.09
2022-12-16T02:50:51.140Z,100577.72
2022-12-16T02:53:21.366Z,100576.97
2022-12-16T02:56:01.848Z,100574.53
2022-12-16T02:58:37.990Z,100576.84
2022-12-16T03:01:13.143Z,100577.06
2022-12-16T03:03:49.315Z,100580.41
2022-12-16T03:06:20.508Z,100580.97
2022-12-16T03:08:53.724Z,100581.69
2022-12-16T03:11:22.449Z,100583.56
2022-12-16T03:13:54.808Z,100580.97
2022-12-16T03:16:28.014Z,100586.22
2022-12-16T03:19:04.020Z,100590.16
2022-12-16T03:21:38.478Z,100587.97
2022-12-16T03:24:11.136Z,100590.41
2022-12-16T03:26:45.040Z,100584.88
2022-12-16T03:29:16.291Z,100584.72
2022-12-16T03:31:49.152Z,100583.81
2022-12-16T03:34:29.146Z,100584.78
2022-12-16T03:37:03.363Z,100591.50
2022-12-16T03:39:34.389Z,100587.03
2022-12-16T03:42:03.954Z,100592.31
2022-12-16T03:44:32.603Z,100587.94
2022-12-16T03:47:01.055Z,100587.22
2022-12-16T03:49:31.423Z,100590.53
2022-12-16T03:52:00.463Z,100585.50
2022-12-16T03:54:32.157Z,100589.63
2022-12-16T03:57:07.335Z,100597.72
2022-12-16T03:59:39.562Z,100596.88
2022-12-16T04:02:07.980Z,100591.19
2022-12-16T04:04:38.004Z,100597.28
2022-12-16T04:07:21.733Z,100595.44
2022-12-16T04:09:51.020Z,100595.34
2022-12-16T04:12:37.517Z,100596.94
2022-12-16T04:15:24.209Z,100588.94
2022-12-16T04:18:10.323Z,100594.06
2022-12-16T04:21:02.343Z,100595.91
2022-12-16T04:23:47.727Z,100591.03
2022-12-16T04:26:16.706Z,100600.31
2022-12-16T04:28:45.094Z,100597.66
2022-12-16T04:31:13.917Z,100599.25
2022-12-16T04:34:02.123Z,100612.00
2022-12-16T04:36:50.034Z,100607.59
2022-12-16T04:39:41.488Z,100617.03
2022-12-16T04:42:28.698Z,100619.47
2022-12-16T04:48:13.288Z,100624.47
2022-12-16T04:50:59.291Z,100624.63
2022-12-16T04:53:54.892Z,100623.75
2022-12-16T04:56:40.788Z,100616.06
2022-12-16T04:59:26.606Z,100619.59
2022-12-16T05:02:12.187Z,100621.59
2022-12-16T05:04:59.021Z,100631.13
2022-12-16T05:07:45.778Z,100635.44
2022-12-16T05:10:33.603Z,100638.03
2022-12-16T05:13:20.138Z,100639.59
2022-12-16T05:16:05.978Z,100639.66
2022-12-16T05:18:58.719Z,100639.66
2022-12-16T05:21:47.479Z,100645.28
2022-12-16T05:24:36.025Z,100644.50
2022-12-16T05:27:24.256Z,100647.25
2022-12-16T05:30:27.935Z,100647.19
2022-12-16T05:33:18.556Z,100656.22
2022-12-16T05:36:06.755Z,100665.75
2022-12-16T05:38:53.872Z,100664.78
2022-12-16T05:41:40.516Z,100664.72
2022-12-16T05:44:29.364Z,100666.56
2022-12-16T05:47:14.928Z,100670.06
2022-12-16T05:50:00.911Z,100673.63
2022-12-16T05:52:47.336Z,100680.69
2022-12-16T05:55:34.248Z,100680.22
2022-12-16T05:58:20.765Z,100681.28
2022-12-16T06:01:08.744Z,100684.94
2022-12-16T06:03:54.708Z,100689.84
2022-12-16T06:06:41.027Z,100703.47
2022-12-16T06:09:27.086Z,100700.56
2022-12-16T06:12:12.642Z,100703.88
2022-12-16T06:14:58.533Z,100706.00
2022-12-16T06:17:46.361Z,100706.00
2022-12-16T06:20:32.006Z,100720.94
2022-12-16T06:23:21.153Z,100731.97
2022-12-16T06:26:09.781Z,100734.50
2022-12-16T06:28:55.039Z,100744.44
2022-12-16T06:31:40.802Z,100743.28
2022-12-16T06:34:27.996Z,100748.78
2022-12-16T06:37:13.804Z,100756.22
2022-12-16T06:39:59.216Z,100758.13
2022-12-16T06:42:44.998Z,100761.19
2022-12-16T06:45:35.008Z,100757.31
2022-12-16T06:48:20.779Z,100762.69
2022-12-16T06:51:09.222Z,100768.66
2022-12-16T06:53:54.708Z,100778.19
2022-12-16T06:56:40.281Z,100778.41
2022-12-16T06:59:25.497Z,100787.56
2022-12-16T07:02:11.238Z,100798.16
2022-12-16T07:04:58.465Z,100800.66
2022-12-16T07:07:45.606Z,100793.59
2022-12-16T07:10:31.603Z,100803.47
2022-12-16T07:13:19.034Z,100806.38
2022-12-16T07:16:05.479Z,100808.66
2022-12-16T07:18:51.363Z,100822.56
2022-12-16T07:21:37.170Z,100820.53
2022-12-16T07:24:25.291Z,100814.78
2022-12-16T07:27:11.030Z,100821.91
2022-12-16T07:30:08.062Z,100820.53
2022-12-16T07:32:53.632Z,100821.22
2022-12-16T07:35:40.212Z,100821.84
2022-12-16T07:38:25.722Z,100834.16
2022-12-16T07:41:13.959Z,100846.53
2022-12-16T07:44:00.400Z,100852.50
2022-12-16T07:46:47.659Z,100856.78
2022-12-16T07:49:33.283Z,100853.81
2022-12-16T07:52:22.240Z,100866.63
2022-12-16T07:55:08.266Z,100868.97
2022-12-16T07:58:22.161Z,100875.47
2022-12-16T08:10:56.448Z,100891.22
2022-12-16T08:13:49.104Z,100887.16
2022-12-16T08:16:34.434Z,100894.84
2022-12-16T08:19:19.993Z,100901.84
2022-12-16T08:22:05.405Z,100911.16
2022-12-16T08:24:53.541Z,100909.03
2022-12-16T08:27:38.708Z,100916.44
2022-12-16T08:30:27.305Z,100916.38
2022-12-16T08:33:18.854Z,100920.63
2022-12-16T08:36:05.901Z,100920.28
2022-12-16T08:38:51.484Z,100921.84
2022-12-16T08:41:37.089Z,100934.44
2022-12-16T08:44:22.766Z,100942.69
2022-12-16T08:47:10.095Z,100932.31
2022-12-16T08:49:57.918Z,100939.69
2022-12-16T08:52:47.469Z,100957.00
2022-12-16T08:55:33.382Z,100953.75
2022-12-16T08:58:24.285Z,100945.81
2022-12-16T09:01:10.049Z,100951.94
2022-12-16T09:04:28.333Z,100959.28
2022-12-16T09:07:14.810Z,100957.66
2022-12-16T09:10:00.564Z,100958.88
2022-12-16T09:12:46.077Z,100968.88
2022-12-16T09:15:31.822Z,100967.97
2022-12-16T09:18:17.383Z,100956.09
2022-12-16T09:21:04.593Z,100965.31
2022-12-16T09:23:55.696Z,100967.22
2022-12-16T09:26:44.493Z,100970.13
2022-12-16T09:29:30.376Z,100971.50
2022-12-16T09:32:15.701Z,100974.13
2022-12-16T09:35:02.024Z,100971.66
2022-12-16T09:37:49.294Z,100974.94
2022-12-16T09:40:36.436Z,100976.81
2022-12-16T09:43:32.293Z,100978.56
2022-12-16T09:46:32.608Z,100983.47
2022-12-16T09:49:30.515Z,100985.66
2022-12-16T09:56:02.101Z,100987.97
2022-12-16T09:58:52.036Z,100988.94
2022-12-16T10:01:40.266Z,100987.03
2022-12-16T10:04:43.767Z,100995.31
2022-12-16T10:07:35.800Z,100993.72
2022-12-16T10:10:33.645Z,101000.31
2022-12-16T10:13:38.703Z,100995.59
2022-12-16T10:16:35.195Z,101001.56
2022-12-16T10:19:39.875Z,101006.16
2022-12-16T10:22:35.607Z,100997.41
2022-12-16T10:25:34.327Z,100997.50
2022-12-16T10:28:34.574Z,101001.44
2022-12-16T10:31:23.085Z,100988.69
2022-12-16T10:34:11.271Z,100990.25
2022-12-16T10:36:57.742Z,100985.13
2022-12-16T10:39:48.136Z,100984.19
2022-12-16T10:42:40.965Z,100987.84
2022-12-16T10:45:36.039Z,100985.03
2022-12-16T10:48:36.261Z,100993.22
2022-12-16T10:51:32.771Z,101000.94
2022-12-16T10:54:32.305Z,101001.94
2022-12-16T10:57:29.362Z,100997.91
2022-12-16T11:00:30.415Z,100996.16
2022-12-16T11:03:35.153Z,100999.75
2022-12-16T11:06:21.551Z,100998.72
2022-12-16T11:09:07.122Z,101005.97
2022-12-16T11:11:52.610Z,101003.31
2022-12-16T11:14:59.567Z,101003.78
2022-12-16T11:17:50.790Z,101007.50
2022-12-16T11:20:42.505Z,101013.34
2022-12-16T11:23:39.367Z,101011.25
2022-12-16T11:26:33.114Z,101014.13
2022-12-16T11:29:29.543Z,101014.66
2022-12-16T11:32:22.921Z,101012.09
2022-12-16T11:35:13.880Z,101020.56
2022-12-16T11:38:02.176Z,101021.38
2022-12-16T11:41:02.087Z,101014.63
2022-12-16T11:43:49.643Z,101019.69
2022-12-16T11:46:43.650Z,101022.53
2022-12-16T11:49:43.650Z,101026.31
2022-12-16T11:52:37.330Z,101024.88
2022-12-16T11:56:04.119Z,101029.69
2022-12-16T11:58:55.265Z,101025.66
2022-12-16T12:01:46.903Z,101016.09
2022-12-16T12:04:33.221Z,101014.06
2022-12-16T12:07:46.824Z,101030.53
2022-12-16T12:10:49.381Z,101019.75
2022-12-16T12:13:48.942Z,101022.16
2022-12-16T12:16:44.228Z,101026.25
2022-12-16T12:19:44.009Z,101030.00
2022-12-16T12:22:34.685Z,101036.88
2022-12-16T12:25:28.391Z,101035.00
2022-12-16T12:28:22.810Z,101045.25
2022-12-16T12:31:17.231Z,101043.28
2022-12-16T12:34:14.580Z,101053.88
2022-12-16T12:37:10.635Z,101045.81
2022-12-16T12:40:03.053Z,101054.03
2022-12-16T12:42:58.376Z,101053.16
2022-12-16T12:46:03.800Z,101062.84
2022-12-16T12:49:01.407Z,101067.22
2022-12-16T12:51:55.081Z,101070.56
2022-12-16T12:54:51.600Z,101075.41
2022-12-16T12:57:41.512Z,101066.41
2022-12-16T13:00:36.613Z,101070.59
2022-12-16T13:03:26.283Z,101074.19
2022-12-16T13:06:13.073Z,101076.84
2022-12-16T13:09:12.988Z,101077.81
2022-12-16T13:12:20.335Z,101077.66
2022-12-16T13:15:15.054Z,101083.38
2022-12-16T13:18:39.429Z,101082.53
2022-12-16T13:22:17.236Z,101094.56
2022-12-16T13:25:07.865Z,101091.66
2022-12-16T13:28:14.002Z,101089.91
2022-12-16T13:31:20.224Z,101100.41
2022-12-16T13:34:24.410Z,101107.28
2022-12-16T13:37:15.630Z,101104.63
2022-12-16T13:44:10.793Z,101104.28
2022-12-16T13:47:02.263Z,101112.00
2022-12-16T13:50:03.726Z,101110.31
2022-12-16T13:53:03.657Z,101107.22
2022-12-16T13:55:56.391Z,101110.31
2022-12-16T13:58:51.372Z,101116.94
2022-12-16T14:01:47.132Z,101114.13
2022-12-16T14:04:44.285Z,101117.25
2022-12-16T14:07:41.518Z,101117.81
2022-12-16T14:10:46.634Z,101128.81
2022-12-16T14:13:41.885Z,101137.91
2022-12-16T14:16:38.389Z,101134.28
2022-12-16T14:19:44.273Z,101138.59
2022-12-16T14:22:45.729Z,101147.75
2022-12-16T14:25:35.343Z,101145.09
2022-12-16T14:28:27.137Z,101149.59
2022-12-16T14:31:23.615Z,101154.94
2022-12-16T14:34:12.440Z,101156.09
2022-12-16T14:36:58.984Z,101163.13
2022-12-16T14:39:48.671Z,101161.47
2022-12-16T14:42:41.319Z,101163.22
2022-12-16T14:45:40.803Z,101170.09
2022-12-16T14:48:47.469Z,101178.66
2022-12-16T14:51:41.485Z,101168.38
2022-12-16T14:54:43.739Z,101182.50
2022-12-16T14:57:33.586Z,101178.22
2022-12-16T15:00:20.807Z,101184.78
2022-12-16T15:03:09.866Z,101195.09
2022-12-16T15:05:58.548Z,101190.94
2022-12-16T15:08:50.707Z,101199.31
2022-12-16T15:11:40.551Z,101197.38
2022-12-16T15:14:32.096Z,101205.13
2022-12-16T15:17:22.769Z,101202.97
2022-12-16T15:20:14.095Z,101210.03
2022-12-16T15:23:07.139Z,101219.53
2022-12-16T15:26:02.105Z,101222.91
2022-12-16T15:28:58.266Z,101218.75
2022-12-16T15:34:50.164Z,101227.38
2022-12-16T15:37:38.676Z,101226.63
2022-12-16T15:40:39.299Z,101233.66
2022-12-16T15:43:25.747Z,101235.53
2022-12-16T15:46:11.111Z,101236.47
2022-12-16T15:48:56.965Z,101238.97
2022-12-16T15:51:48.730Z,101241.44
2022-12-16T15:54:42.165Z,101249.72
2022-12-16T16:00:44.414Z,101247.91
2022-12-16T16:03:42.694Z,101252.94
2022-12-16T16:06:35.290Z,101250.53
2022-12-16T16:09:21.189Z,101255.03
2022-12-16T16:12:06.448Z,101261.19
2022-12-16T16:14:52.263Z,101271.53
2022-12-16T16:17:41.542Z,101263.53
2022-12-16T16:20:32.857Z,101263.69
2022-12-16T16:23:18.923Z,101269.69
2022-12-16T16:26:05.929Z,101266.97
2022-12-16T16:28:52.025Z,101270.63
2022-12-16T16:31:39.888Z,101278.03
2022-12-16T16:34:27.137Z,101282.31
2022-12-16T16:37:14.885Z,101273.16
2022-12-16T16:40:01.317Z,101288.47
2022-12-16T16:42:46.961Z,101289.44
2022-12-16T16:45:32.778Z,101281.84
2022-12-16T16:48:25.851Z,101284.69
2022-12-16T16:51:14.710Z,101296.84
2022-12-16T16:54:00.482Z,101298.13
2022-12-16T16:56:49.969Z,101297.81
2022-12-16T16:59:35.354Z,101299.75
2022-12-16T17:02:20.796Z,101301.69
2022-12-16T17:05:06.483Z,101305.91
2022-12-16T17:07:56.547Z,101301.59
2022-12-16T17:10:41.960Z,101310.44
2022-12-16T17:13:28.446Z,101310.41
2022-12-16T17:16:14.333Z,101321.47
2022-12-16T17:18:59.863Z,101315.59
2022-12-16T17:21:45.134Z,101308.75
2022-12-16T17:24:32.113Z,101317.34
2022-12-16T17:27:17.557Z,101323.63
2022-12-16T17:30:03.094Z,101332.47
2022-12-16T17:38:41.676Z,101329.63
2022-12-16T17:41:32.249Z,101334.84
2022-12-16T17:44:20.688Z,101337.38
2022-12-16T17:50:42.681Z,101345.56
2022-12-16T17:53:32.281Z,101363.41
2022-12-16T17:56:21.936Z,101357.47
2022-12-16T17:59:15.613Z,101360.22
2022-12-16T18:02:08.658Z,101367.69
2022-12-16T18:04:55.408Z,101366.31
2022-12-16T18:07:50.805Z,101357.97
2022-12-16T18:10:47.226Z,101367.69
2022-12-16T18:37:46.886Z,101395.44
2022-12-16T18:40:39.322Z,101406.31
2022-12-16T18:46:35.379Z,101398.03
2022-12-16T18:49:23.150Z,101399.72
2022-12-16T18:52:08.962Z,101403.38
2022-12-16T18:55:04.099Z,101413.28
2022-12-16T19:01:22.371Z,101418.03
2022-12-16T19:04:14.152Z,101420.44
2022-12-16T19:07:05.361Z,101424.84
2022-12-16T19:10:03.903Z,101428.84
2022-12-16T19:12:57.521Z,101431.47
2022-12-16T19:15:49.125Z,101435.03
2022-12-16T19:21:51.907Z,101441.41
2022-12-16T19:24:47.411Z,101448.53
2022-12-16T19:27:32.944Z,101443.25
2022-12-16T19:30:22.801Z,101451.78
2022-12-16T19:33:08.969Z,101454.63
2022-12-16T19:36:10.528Z,101462.41
2022-12-16T19:38:59.980Z,101469.72
2022-12-16T19:41:59.154Z,101466.69
2022-12-16T19:44:57.969Z,101466.88
2022-12-16T19:47:52.492Z,101477.81
2022-12-16T19:50:38.551Z,101478.97
2022-12-16T19:53:26.439Z,101489.81
2022-12-16T19:56:17.271Z,101492.19
2022-12-16T19:59:06.121Z,101493.03
2022-12-16T20:14:44.527Z,101512.31
2022-12-16T20:17:42.532Z,101505.84
2022-12-16T20:20:54.852Z,101517.69
2022-12-16T20:23:54.351Z,101514.47
2022-12-16T20:55:40.214Z,101527.03
